Logo

Informe meteorológico de datos medios para el día en curso

  • Compartir en Google Plus
  • Compartir en Twitter
  • Compartir en Facebook
Nº de accesos al conjunto de datos: 407

Previsualización

API de datos Código HTML

_id codest paraje municipio dia hora tmin tmax tmed hrmin hrmax hrmed prec radmax radmed vvmed vvmax
1 AL31 Lebor Totana 2022-10-03T00:00:00 00:00 16.6 17.1 16.8 88.0 92.3 89.9 0 0.0 0 0.3 1.3
2 AL41 La Calavera Alhama 2022-10-03T00:00:00 01:00 16.7 18.2 17.3 79.1 81.8 80.6 0 0.0 0 0.1 1.5
3 AL52 Los Palomos Librilla 2022-10-03T00:00:00 00:00 16.5 17.0 16.7 94.8 98.5 97.7 0 0.0 0 0.5 1.3
4 AL62 Cañada Gallego Mazarrón 2022-10-03T00:00:00 01:00 20.6 21.2 21.0 68.7 73.1 71.6 0 0.0 0 1.2 4.2
5 AL91 Leiva Mazarrón 2022-10-03T00:00:00 01:00 20.8 21.7 21.3 None None None 0 0.0 0 1.8 3.5
6 CA12 La Palma Cartagena 2022-10-03T00:00:00 01:00 18.9 19.7 19.2 80.9 83.8 82.5 0 0.0 0 0.0 1.2
7 CA21 Corvera Murcia 2022-10-03T00:00:00 00:00 17.8 18.1 17.9 82.1 83.8 83.0 0 0.0 0 1.1 1.9
8 CA42 Balsapintada Fuente Alamo 2022-10-03T00:00:00 00:00 17.8 18.3 18.1 95.1 97.7 96.6 0 0.0 0 0.1 0.8
9 CA52 La Aljorra Cartagena 2022-10-03T00:00:00 00:00 19.5 19.9 19.7 83.6 87.2 85.6 0 0.0 0 1.4 2.6
10 CA73 Los Belones Cartagena 2022-10-03T00:00:00 01:00 20.2 21.4 20.6 83.9 88.1 86.4 0 0.0 0 2.8 5.9
11 CA91 Campillo Abajo Fuente Alamo 2022-10-03T00:00:00 00:00 16.8 17.5 17.1 80.0 81.5 80.9 0 0.0 0 0.1 0.8
12 CI22 Estación de Blanca Blanca 2022-10-03T00:00:00 01:00 15.9 17.7 16.8 66.7 77.5 72.3 0 0.0 0 0.3 1.2
13 CI32 Estación Ulea Ulea 2022-10-03T00:00:00 00:00 15.9 16.6 16.1 81.4 84.9 83.1 0 0.0 0 0.6 1.3
14 CI42 La Carrichosa Cieza 2022-10-03T00:00:00 01:00 14.0 15.8 14.8 89.9 94.7 92.7 0 0.0 0 0.1 0.7
15 CI52 Rotas Calasparra 2022-10-03T00:00:00 01:00 15.0 16.0 15.4 81.4 84.1 82.5 0 0.0 0 0.2 1.2
16 CI71 Llano de las olivericas Calasparra 2022-10-03T00:00:00 01:00 14.9 16.6 15.6 84.6 92.4 88.9 0 0.0 0 0.1 0.7
17 CR32 El Chaparral Cehegin 2022-10-03T00:00:00 01:00 13.0 13.6 13.2 81.0 84.7 83.4 0 0.0 0 0.1 1.4
18 CR42 Venta Ulea Moratalla 2022-10-03T00:00:00 00:00 15.2 15.5 15.3 76.3 77.7 77.0 0 0.0 0 1.9 2.7
19 CR52 La Torrecica Cehegin 2022-10-03T00:00:00 01:00 14.3 15.0 14.7 76.4 80.0 77.9 0 0.0 0 0.1 1.2
20 JU12 Cañada del Judio Jumilla 2022-10-03T00:00:00 01:00 14.8 15.8 15.2 74.5 76.7 75.7 0 0.0 0 0.3 1.6
21 JU42 Las Moratillas Yecla 2022-10-03T00:00:00 00:00 12.7 13.1 12.9 83.4 86.0 84.9 0 0.0 0 0.8 1.6
22 JU52 Pinillos Yecla 2022-10-03T00:00:00 01:00 12.1 13.6 12.8 78.4 84.5 81.6 0 0.0 0 0.2 1.3
23 JU62 Miraflores Jumilla 2022-10-03T00:00:00 01:00 13.3 15.7 14.5 61.6 72.8 67.5 0 0.0 0 0.4 1.2
24 JU71 Las Encebras Jumilla 2022-10-03T00:00:00 01:00 14.4 16.0 15.3 69.6 77.3 74.2 0 0.0 0 0.8 1.6
25 JU81 Roman Jumilla 2022-10-03T00:00:00 01:00 14.4 15.9 15.1 72.6 76.7 74.8 0 0.0 0 0.4 1.6
26 LO11 Purias Lorca 2022-10-03T00:00:00 00:00 18.0 18.9 18.5 73.3 76.1 75.0 0 0.0 0 1.3 2.8
27 LO21 Pozohiguera Lorca 2022-10-03T00:00:00 00:00 17.9 18.5 18.1 74.1 80.6 77.9 0 0.0 0 2.2 3.3
28 LO31 La Pilica Aguilas 2022-10-03T00:00:00 00:00 21.1 21.9 21.6 66.4 69.0 67.8 0 0.0 0 0.4 1.7
29 LO41 La Paca Lorca 2022-10-03T00:00:00 00:00 16.3 16.5 16.4 61.9 64.3 63.4 0 0.0 0 0.7 2.5
30 LO51 Tebar Aguilas 2022-10-03T00:00:00 01:00 19.7 21.2 20.4 42.7 50.0 45.9 0 0.0 0 1.1 2.9
31 LO61 El Esparragal Puerto Lumbreras 2022-10-03T00:00:00 01:00 18.0 18.7 18.3 67.1 72.2 69.7 0 0.0 0 1.4 3.0
32 ML21 Mula Mula 2022-10-03T00:00:00 01:00 14.3 16.1 14.9 75.2 83.9 80.4 0 0.0 0 0.3 1.0
33 MO12 Pilica Torres de Cotillas 2022-10-03T00:00:00 00:00 17.4 17.8 17.7 81.5 87.9 84.4 0 0.0 0 0.7 1.6
34 MO31 El Llano Molina Segura 2022-10-03T00:00:00 01:00 16.4 17.5 16.8 98.0 99.9 99.8 0 0.0 0 0.0 0.1
35 MO51 Charco Taray Fortuna 2022-10-03T00:00:00 00:00 16.7 17.2 16.9 81.5 84.3 83.1 0 0.0 0 0.3 1.1
36 MO62 Loma del Aire Ojós 2022-10-03T00:00:00 01:00 17.1 18.5 17.6 82.5 93.4 87.9 0 0.0 0 0.4 1.5
37 MU21 Los Alamos Beniel 2022-10-03T00:00:00 00:00 16.5 16.7 16.6 99.1 99.3 99.2 0 0.0 0 0.0 0.4
38 MU31 La Vereda Murcia 2022-10-03T00:00:00 01:00 17.0 18.2 17.6 85.4 89.7 87.9 0 0.0 0 0.4 1.4
39 MU52 Cabezo Plata Murcia 2022-10-03T00:00:00 01:00 17.2 18.3 17.8 86.8 90.6 88.6 0 0.0 0 0.5 1.7
40 TP22 Santiago de la Ribera San Javier 2022-10-03T00:00:00 01:00 19.4 20.4 19.8 72.6 75.1 73.8 0 0.0 0 0.9 2.4
41 TP42 Torre Blanca Torre Pacheco 2022-10-03T00:00:00 01:00 20.1 21.1 20.6 79.9 83.6 81.7 0 0.0 0 1.5 3.8
42 TP52 El Mirador San Javier 2022-10-03T00:00:00 01:00 18.3 19.3 18.7 79.9 81.2 80.6 0 0.0 0 0.9 2.1
43 TP73 Los Infiernos Torre Pacheco 2022-10-03T00:00:00 01:00 18.7 19.5 19.1 77.5 79.3 78.3 0 0.0 0 2.1 3.5
44 TP82 El Jimenado Torre Pacheco 2022-10-03T00:00:00 00:00 18.2 18.7 18.4 80.4 81.4 80.9 0 0.1 0 1.6 2.4
45 TP91 Torre Pacheco Torre Pacheco 2022-10-03T00:00:00 00:00 18.5 19.1 18.7 86.2 89.2 88.0 0 0.0 0 0.7 1.7

Propiedades del conjunto de datos

Título
Informe meteorológico de datos medios para el día en curso
Descripción

Información sobre los datos meteorológicos del día en curso. Se incluye la información por cada una de las estaciones meteorológicas de la red SIAM gestionada por el Instituto Murciano de Investigación y Desarrollo Agrario y Alimentario (IMIDA). Los datos recogidos por las estaciones son validados al día siguiente de la toma de datos.

Categoría
Palabra clave / etiqueta
Publicador
Cobertura geográfica
Región de Murcia
Idioma
Español
Fecha de primera publicación
15/05/2018
Fecha de última modificación
03/10/2022
Licencia
Frecuencia de actualización
Horaria (cada hora)
Diccionario de datos
La información se estructura en las siguientes columnas: Código de estación meteorológica, Nombre del paraje donde está ubicada la estación, Municipio donde está ubicada la estación, día de toma de datos, hora de toma de datos, Temperatura mínima (ºC), Temperatura máxima (ºC), Temperatura media (ºC), Humedad Relativa mínima (%), Humedad Relativa máxima (%),Humedad Relativa media (%),Precipitación (mm), radiación máxima (w/m2), radiación media (w/m2), Velocidad del Viento media (m/seg), Velocidad del Viento máxima (m/seg), Evapotranspiración máxima de un día (mm).
comments powered by Disqus